Time;durP1;ratioP1;P1;durP2;ratioP2;P2;SDS_P1;SDS_P2;PMS_P1;PMS_P2;Temp;Humidity;BMP_temperature;BMP_pressure;BME280_temperature;BME280_humidity;BME280_pressure;Samples;Min_cycle;Max_cycle;Signal;HPM_P1;HPM_P2
2023/07/24 00:00:21;;;;;;;;;;;21.60;47.00;;;17.76;83.56;94895.38;4993800;28;19917;-50
2023/07/24 00:02:47;;;;;;;;;;;21.50;47.10;;;17.72;84.45;94895.25;4992843;28;20394;-48
2023/07/24 00:05:12;;;;;;;;;;;21.50;47.20;;;17.69;84.40;94884.34;4994355;28;19909;-52
2023/07/24 00:07:38;;;;;;;;;;;21.50;47.20;;;17.58;86.69;94881.25;4994498;28;19913;-49
2023/07/24 00:10:05;;;;;;;;;;;21.40;47.30;;;17.50;86.60;94880.19;4992597;28;19913;-52
2023/07/24 00:12:31;;;;;;;;;;;21.40;47.40;;;17.46;86.18;94887.34;4993954;28;19909;-50
2023/07/24 00:14:57;;;;;;;;;;;21.30;47.60;;;17.43;87.08;94889.88;4992866;28;19916;-48
2023/07/24 00:17:23;;;;;;;;;;;21.30;47.70;;;17.42;87.84;94899.06;4994028;28;19909;-48
2023/07/24 00:19:49;;;;;;;;;;;21.30;47.90;;;17.48;87.72;94890.47;4992605;28;20264;-49
2023/07/24 00:22:14;;;;;;;;;;;21.30;48.00;;;17.55;87.85;94887.28;5005712;28;19917;-49
2023/07/24 00:24:40;;;;;;;;;;;21.40;48.20;;;17.62;88.38;94892.16;4985789;28;19990;-52
2023/07/24 00:27:06;;;;;;;;;;;21.40;48.20;;;17.66;86.63;94876.91;4993015;28;20483;-53
2023/07/24 00:29:32;;;;;;;;;;;21.40;48.20;;;17.83;87.02;94881.44;4993731;28;20268;-50
2023/07/24 00:31:57;;;;;;;;;;;21.50;48.40;;;17.95;85.61;94886.91;4992201;28;20285;-52
2023/07/24 00:34:23;;;;;;;;;;;21.60;48.40;;;18.03;85.96;94903.00;4993769;28;20055;-49
2023/07/24 00:36:49;;;;;;;;;;;21.70;48.50;;;18.15;85.96;94925.75;4993959;28;20378;-48
2023/07/24 00:39:15;;;;;;;;;;;21.80;48.60;;;18.24;91.01;94948.84;4991759;28;19913;-53
2023/07/24 00:41:41;;;;;;;;;;;21.90;48.60;;;18.31;93.00;94956.41;4993264;28;19960;-48
2023/07/24 00:44:07;;;;;;;;;;;21.80;48.80;;;18.34;94.44;94973.84;4992745;28;19982;-47
2023/07/24 00:46:35;;;;;;;;;;;21.80;49.00;;;18.09;98.71;95105.72;4993573;28;20467;-49
2023/07/24 00:49:04;;;;;;;;;;;21.70;49.60;;;17.96;96.64;95042.84;4992479;28;19909;-50
2023/07/24 00:51:31;;;;;;;;;;;21.60;50.30;;;17.89;97.62;95042.53;4992171;28;20387;-49
2023/07/24 00:54:02;;;;;;;;;;;21.40;50.50;;;17.89;97.17;95012.91;5005046;28;19916;-48
2023/07/24 00:56:29;;;;;;;;;;;21.20;50.60;;;17.72;100.00;94964.50;4993134;28;19913;-50
2023/07/24 00:58:56;;;;;;;;;;;21.10;51.00;;;17.55;100.00;94923.06;5020129;28;19956;-49
2023/07/24 01:01:23;;;;;;;;;;;21.00;51.30;;;17.48;100.00;94922.00;5022869;28;19913;-46
2023/07/24 01:03:49;;;;;;;;;;;20.90;51.50;;;17.40;100.00;94922.84;5008457;28;19916;-47
2023/07/24 01:06:15;;;;;;;;;;;20.80;52.20;;;17.34;100.00;94916.84;5012936;28;19937;-47
2023/07/24 01:08:41;;;;;;;;;;;20.80;51.80;;;17.15;100.00;94892.22;5004630;28;19961;-47
2023/07/24 01:11:24;;;;;;;;;;;20.70;51.90;;;17.13;100.00;94902.50;5001446;28;20356;-47
2023/07/24 01:14:02;;;;;;;;;;;20.60;52.00;;;16.98;100.00;94893.06;5012028;28;19909;-52
2023/07/24 01:16:38;;;;;;;;;;;20.60;52.30;;;16.90;100.00;94888.50;4995399;28;19917;-49
2023/07/24 01:19:34;;;;;;;;;;;20.60;52.40;;;16.82;100.00;94877.44;5012367;28;20268;-47
2023/07/24 01:22:25;;;;;;;;;;;20.50;52.60;;;16.85;100.00;94876.00;4981526;28;20355;-48
2023/07/24 01:25:03;;;;;;;;;;;20.50;52.80;;;16.79;100.00;94864.63;4992950;28;20359;-48
2023/07/24 01:27:29;;;;;;;;;;;20.50;53.00;;;16.71;100.00;94867.34;4992077;28;19913;-49
2023/07/24 01:29:55;;;;;;;;;;;20.40;53.10;;;16.79;100.00;94864.63;4992090;28;19909;-47
2023/07/24 01:32:21;;;;;;;;;;;20.40;53.30;;;16.78;100.00;94857.69;4991941;28;19920;-47
2023/07/24 01:34:48;;;;;;;;;;;20.40;53.40;;;16.77;100.00;94847.25;5006092;28;19932;-47
2023/07/24 01:37:16;;;;;;;;;;;20.40;53.50;;;16.69;100.00;94856.09;4991695;28;19913;-47
2023/07/24 01:39:45;;;;;;;;;;;20.40;53.60;;;16.77;100.00;94850.72;4992672;28;19944;-48
2023/07/24 01:42:12;;;;;;;;;;;20.40;53.80;;;16.78;100.00;94836.16;5027201;28;19909;-49
2023/07/24 01:44:38;;;;;;;;;;;20.40;53.90;;;16.76;100.00;94840.28;5022563;28;19983;-48
2023/07/24 01:47:04;;;;;;;;;;;20.40;54.00;;;16.74;100.00;94845.19;5002304;28;20380;-48
2023/07/24 01:49:30;;;;;;;;;;;20.40;54.20;;;16.69;100.00;94842.66;5011507;28;19913;-50
2023/07/24 01:51:57;;;;;;;;;;;20.40;54.20;;;16.68;100.00;94857.22;5003308;28;19912;-48
2023/07/24 01:54:23;;;;;;;;;;;20.40;54.40;;;16.67;100.00;94853.72;5012227;28;19944;-52
2023/07/24 01:56:49;;;;;;;;;;;20.40;54.50;;;16.66;100.00;94844.88;5003006;28;20004;-49
2023/07/24 01:59:14;;;;;;;;;;;20.40;54.60;;;16.65;100.00;94848.66;5008384;28;20011;-49
2023/07/24 02:01:41;;;;;;;;;;;20.40;54.70;;;16.63;100.00;94850.88;5002323;28;19916;-51
2023/07/24 02:04:07;;;;;;;;;;;20.40;54.80;;;16.62;100.00;94843.94;5007266;28;20338;-53
2023/07/24 02:06:33;;;;;;;;;;;20.40;54.80;;;16.59;100.00;94841.88;5002617;28;19916;-50
2023/07/24 02:08:58;;;;;;;;;;;20.40;55.50;;;16.53;100.00;94840.47;4999892;28;19964;-47
2023/07/24 02:11:24;;;;;;;;;;;20.40;55.00;;;16.52;100.00;94832.75;5011138;28;19913;-47
2023/07/24 02:13:50;;;;;;;;;;;20.30;55.00;;;16.49;100.00;94822.63;5010527;28;20334;-51
2023/07/24 02:16:16;;;;;;;;;;;20.30;55.10;;;16.45;100.00;94843.19;5000971;28;20395;-48
2023/07/24 02:18:42;;;;;;;;;;;20.30;55.20;;;16.39;100.00;94829.91;5011442;28;19909;-48
2023/07/24 02:21:09;;;;;;;;;;;20.20;55.30;;;16.35;100.00;94828.19;5008098;28;20330;-48
2023/07/24 02:23:35;;;;;;;;;;;20.20;55.40;;;16.30;100.00;94820.31;5011608;28;19947;-48
2023/07/24 02:26:01;;;;;;;;;;;20.10;55.50;;;16.26;100.00;94824.72;5008183;28;19963;-48
2023/07/24 02:28:27;;;;;;;;;;;20.10;55.60;;;16.22;100.00;94821.09;5004667;28;19909;-48
2023/07/24 02:30:56;;;;;;;;;;;20.00;55.70;;;16.14;100.00;94822.69;5000846;28;20047;-50
2023/07/24 02:33:23;;;;;;;;;;;20.00;55.80;;;16.13;100.00;94819.19;5000046;28;19959;-52
2023/07/24 02:35:51;;;;;;;;;;;19.90;55.90;;;16.10;100.00;94824.41;5011505;28;20327;-47
2023/07/24 02:38:17;;;;;;;;;;;19.90;56.00;;;16.05;100.00;94822.69;5009137;28;20003;-48
2023/07/24 02:40:45;;;;;;;;;;;19.90;56.20;;;15.99;100.00;94818.59;5000998;28;20455;-48
2023/07/24 02:43:11;;;;;;;;;;;19.80;56.20;;;15.96;100.00;94816.53;5008264;28;19909;-50
2023/07/24 02:45:37;;;;;;;;;;;19.80;56.30;;;15.92;100.00;94819.06;5005267;28;20386;-48
2023/07/24 02:48:04;;;;;;;;;;;19.80;56.40;;;15.88;100.00;94820.78;5011457;28;19909;-47
2023/07/24 02:50:30;;;;;;;;;;;19.70;56.50;;;15.87;100.00;94821.13;5003633;28;20295;-51
2023/07/24 02:52:56;;;;;;;;;;;19.70;56.60;;;15.81;100.00;94817.00;5008479;28;20358;-48
2023/07/24 02:55:21;;;;;;;;;;;19.60;56.60;;;15.77;100.00;94816.84;5011391;28;20016;-48
2023/07/24 02:57:47;;;;;;;;;;;19.60;56.70;;;15.76;100.00;94822.53;4997351;28;19917;-48
2023/07/24 03:00:13;;;;;;;;;;;19.60;56.80;;;15.71;100.00;94832.31;5010694;28;20017;-50
2023/07/24 03:02:39;;;;;;;;;;;19.60;56.90;;;15.70;100.00;94835.34;4998225;28;20736;-50
2023/07/24 03:05:05;;;;;;;;;;;19.50;56.90;;;15.64;100.00;94836.56;5015274;28;19916;-48
2023/07/24 03:07:32;;;;;;;;;;;19.50;57.00;;;15.62;100.00;94842.22;5014938;28;19944;-50
2023/07/24 03:09:58;;;;;;;;;;;19.50;57.10;;;15.61;100.00;94850.59;5006040;28;19909;-48
2023/07/24 03:12:24;;;;;;;;;;;19.50;57.10;;;15.56;100.00;94850.75;5014741;28;19966;-48
2023/07/24 03:14:50;;;;;;;;;;;19.40;57.20;;;15.53;100.00;94849.47;4998080;28;19910;-48
2023/07/24 03:17:16;;;;;;;;;;;19.40;57.30;;;15.48;100.00;94845.06;5009482;28;19909;-48
2023/07/24 03:19:42;;;;;;;;;;;19.40;57.40;;;15.40;100.00;94836.97;5014051;28;19916;-48
2023/07/24 03:22:08;;;;;;;;;;;19.30;57.40;;;15.38;100.00;94833.81;5011276;28;20339;-48
2023/07/24 03:24:35;;;;;;;;;;;19.30;57.50;;;15.37;100.00;94835.72;5014797;28;19914;-52
2023/07/24 03:27:01;;;;;;;;;;;19.30;57.60;;;15.37;100.00;94829.56;5007468;28;20020;-50
2023/07/24 03:29:27;;;;;;;;;;;19.30;57.70;;;15.36;100.00;94823.41;5014027;28;20342;-48
2023/07/24 03:31:53;;;;;;;;;;;19.30;57.80;;;15.37;100.00;94821.50;5012525;28;19966;-48
2023/07/24 03:34:19;;;;;;;;;;;19.20;57.90;;;15.36;100.00;94820.72;5005716;28;19909;-51
2023/07/24 03:36:45;;;;;;;;;;;19.30;58.00;;;15.35;100.00;94818.34;5014484;28;20039;-48
2023/07/24 03:39:11;;;;;;;;;;;19.20;58.00;;;15.37;100.00;94814.25;5012710;28;19916;-48
2023/07/24 03:41:38;;;;;;;;;;;19.20;58.10;;;15.40;100.00;94810.94;5014001;28;19915;-49
2023/07/24 03:44:04;;;;;;;;;;;19.30;58.20;;;15.42;100.00;94797.22;5026164;28;20272;-48
2023/07/24 03:46:32;;;;;;;;;;;19.30;58.30;;;15.43;100.00;94783.47;5012567;28;19932;-52
2023/07/24 03:48:57;;;;;;;;;;;19.30;58.40;;;15.44;100.00;94785.03;5014199;28;20299;-48
2023/07/24 03:51:23;;;;;;;;;;;19.30;58.50;;;15.48;100.00;94788.69;5004459;28;19917;-52
2023/07/24 03:53:49;;;;;;;;;;;19.40;58.60;;;15.50;100.00;94780.31;5014388;28;19913;-51
2023/07/24 03:56:14;;;;;;;;;;;19.40;58.60;;;15.53;100.00;94784.28;5009173;28;19917;-48
2023/07/24 03:58:40;;;;;;;;;;;19.40;58.90;;;15.56;100.00;94768.31;5005815;28;19921;-50
2023/07/24 04:01:08;;;;;;;;;;;19.40;58.60;;;15.60;100.00;94771.16;5012050;28;19948;-47
2023/07/24 04:03:34;;;;;;;;;;;19.50;58.80;;;15.64;100.00;94782.88;5001740;28;19956;-49
2023/07/24 04:06:00;;;;;;;;;;;19.50;58.80;;;15.67;100.00;94791.13;5000688;28;19935;-47
2023/07/24 04:08:26;;;;;;;;;;;19.50;58.80;;;15.70;100.00;94798.53;4999891;28;19909;-46
2023/07/24 04:10:52;;;;;;;;;;;19.60;58.80;;;15.70;100.00;94798.53;4998043;28;19956;-46
2023/07/24 04:13:17;;;;;;;;;;;19.60;58.90;;;15.79;100.00;94789.69;5005650;28;20280;-48
2023/07/24 04:15:44;;;;;;;;;;;19.70;59.00;;;15.85;100.00;94793.78;4997099;28;19927;-48
2023/07/24 04:18:10;;;;;;;;;;;19.70;59.00;;;15.90;100.00;94796.31;5013635;28;20391;-48
2023/07/24 04:20:37;;;;;;;;;;;19.70;59.10;;;15.94;100.00;94800.72;5011767;28;19912;-46
2023/07/24 04:23:03;;;;;;;;;;;19.80;59.20;;;16.01;100.00;94812.88;5004094;28;19913;-46
2023/07/24 04:25:28;;;;;;;;;;;19.80;59.20;;;16.06;100.00;94812.72;5012322;28;19913;-46
2023/07/24 04:27:54;;;;;;;;;;;19.90;59.20;;;16.10;100.00;94827.88;5007412;28;20338;-46
2023/07/24 04:30:20;;;;;;;;;;;20.00;59.30;;;16.17;100.00;94833.59;5013381;28;19913;-48
2023/07/24 04:32:46;;;;;;;;;;;20.00;59.30;;;16.21;100.00;94847.19;5004536;28;19914;-49
2023/07/24 04:35:12;;;;;;;;;;;20.10;59.50;;;16.29;100.00;94843.66;5011890;28;19919;-47
2023/07/24 04:37:38;;;;;;;;;;;20.10;59.40;;;16.30;100.00;94842.59;5013614;28;19951;-47
2023/07/24 04:40:05;;;;;;;;;;;20.20;59.40;;;16.35;100.00;94853.16;4989822;28;20003;-47
2023/07/24 04:42:31;;;;;;;;;;;20.30;59.40;;;16.41;100.00;94865.31;5013175;28;19913;-47
2023/07/24 04:44:57;;;;;;;;;;;20.30;59.40;;;16.46;100.00;94917.34;5008007;28;19913;-47
2023/07/24 04:47:25;;;;;;;;;;;20.30;59.40;;;16.47;100.00;95023.75;5012384;28;26634;-47
2023/07/24 04:49:50;;;;;;;;;;;20.40;59.60;;;16.43;100.00;95083.50;5011740;28;20388;-50
2023/07/24 04:52:16;;;;;;;;;;;20.40;59.80;;;16.43;100.00;95117.66;5005119;28;19916;-48
2023/07/24 04:54:42;;;;;;;;;;;20.30;60.00;;;16.35;100.00;95182.94;5012965;28;19909;-53
2023/07/24 04:57:07;;;;;;;;;;;20.20;60.30;;;16.23;100.00;95228.41;5001228;28;19909;-49
2023/07/24 04:59:33;;;;;;;;;;;20.10;61.10;;;16.21;100.00;95228.72;5010920;28;20372;-47
2023/07/24 05:01:59;;;;;;;;;;;20.10;61.30;;;16.19;100.00;95238.97;5010879;28;19924;-55
2023/07/24 05:04:25;;;;;;;;;;;20.00;61.60;;;16.15;100.00;95195.03;5010826;28;19916;-46
2023/07/24 05:06:50;;;;;;;;;;;19.90;61.70;;;16.17;100.00;95200.91;5004248;28;19921;-46
2023/07/24 05:09:16;;;;;;;;;;;19.90;62.00;;;16.16;100.00;95208.13;4996060;28;20376;-46
2023/07/24 05:11:44;;;;;;;;;;;19.90;62.20;;;16.16;100.00;95204.66;5012789;28;19913;-45
2023/07/24 05:14:10;;;;;;;;;;;19.80;62.50;;;16.17;100.00;95212.44;5003826;28;19971;-52
2023/07/24 05:16:36;;;;;;;;;;;19.80;62.70;;;16.17;100.00;95207.06;5012425;28;20383;-49
2023/07/24 05:19:02;;;;;;;;;;;19.80;63.00;;;16.21;100.00;95203.75;5010755;28;19913;-47
2023/07/24 05:21:28;;;;;;;;;;;19.80;63.50;;;16.27;100.00;95191.78;5000483;28;20455;-46
2023/07/24 05:23:54;;;;;;;;;;;19.80;63.90;;;16.28;100.00;95180.69;5012577;28;20276;-47
2023/07/24 05:26:21;;;;;;;;;;;19.80;64.10;;;16.29;100.00;95163.47;5006890;28;19951;-47
2023/07/24 05:28:47;;;;;;;;;;;19.80;64.30;;;16.32;100.00;95143.25;5007586;28;19931;-49
2023/07/24 05:31:13;;;;;;;;;;;19.80;64.50;;;16.35;100.00;95092.34;5012188;28;19917;-46
2023/07/24 05:33:39;;;;;;;;;;;19.80;64.50;;;16.38;100.00;95035.28;4998111;28;20342;-47
2023/07/24 05:36:05;;;;;;;;;;;19.80;64.40;;;16.36;100.00;94985.66;5011966;28;19913;-50
2023/07/24 05:38:31;;;;;;;;;;;19.80;64.30;;;16.30;100.00;94960.81;4994740;28;19909;-48
2023/07/24 05:41:03;;;;;;;;;;;19.90;64.30;;;16.33;100.00;94959.41;4997350;28;19956;-50
2023/07/24 05:43:31;;;;;;;;;;;19.90;64.10;;;16.19;100.00;94919.22;4994728;28;19939;-48
2023/07/24 05:45:58;;;;;;;;;;;19.90;64.10;;;16.24;100.00;94894.91;5000007;28;20273;-45
2023/07/24 05:48:25;;;;;;;;;;;19.90;64.30;;;16.32;100.00;94851.09;5007937;28;19913;-47
2023/07/24 05:50:51;;;;;;;;;;;19.90;64.10;;;16.38;100.00;94895.50;5009668;28;19913;-47
2023/07/24 05:53:17;;;;;;;;;;;20.00;64.10;;;16.34;100.00;94923.34;4994653;28;20435;-47
2023/07/24 05:55:43;;;;;;;;;;;20.00;64.10;;;16.41;100.00;94868.00;4991811;28;19913;-49
2023/07/24 05:58:09;;;;;;;;;;;20.10;64.10;;;16.47;100.00;94926.97;5003511;28;19912;-48
2023/07/24 06:00:36;;;;;;;;;;;20.20;64.00;;;16.52;100.00;94911.50;5004495;28;19926;-45
2023/07/24 06:03:03;;;;;;;;;;;20.30;64.00;;;16.60;100.00;94907.19;5000378;28;20030;-47
2023/07/24 06:05:28;;;;;;;;;;;20.40;63.80;;;16.68;100.00;94924.44;5008058;28;20382;-45
2023/07/24 06:07:54;;;;;;;;;;;20.50;63.60;;;16.75;100.00;94930.13;4999590;28;19909;-48
2023/07/24 06:10:21;;;;;;;;;;;20.70;63.60;;;16.83;100.00;94914.00;4989795;28;20012;-52
2023/07/24 06:12:47;;;;;;;;;;;20.80;64.30;;;16.93;100.00;94899.41;4993044;28;19956;-46
2023/07/24 06:15:13;;;;;;;;;;;20.90;63.40;;;17.03;100.00;94907.13;5002704;28;19959;-45
2023/07/24 06:17:39;;;;;;;;;;;21.10;63.30;;;17.11;100.00;94900.94;5011595;28;19963;-49
2023/07/24 06:20:06;;;;;;;;;;;21.20;63.20;;;17.28;100.00;94901.97;5008661;28;19909;-47
2023/07/24 06:22:32;;;;;;;;;;;21.50;63.00;;;17.36;100.00;94879.63;4995078;28;19909;-49
2023/07/24 06:24:58;;;;;;;;;;;21.70;63.00;;;17.60;100.00;94870.16;4994824;28;20596;-48
2023/07/24 06:27:24;;;;;;;;;;;21.90;62.90;;;17.83;100.00;94879.56;4994240;28;19913;-46
2023/07/24 06:29:49;;;;;;;;;;;22.20;62.90;;;17.96;100.00;94888.50;5002220;28;19913;-49
2023/07/24 06:32:15;;;;;;;;;;;22.30;62.70;;;18.04;100.00;94922.66;4994602;28;20023;-50
2023/07/24 06:34:41;;;;;;;;;;;22.40;62.50;;;18.11;100.00;94924.81;5001082;28;20371;-48
2023/07/24 06:37:07;;;;;;;;;;;22.50;62.30;;;18.16;100.00;94930.81;5001492;28;19912;-47
2023/07/24 06:39:33;;;;;;;;;;;22.60;62.10;;;18.21;100.00;94943.31;5000761;28;19999;-47
2023/07/24 06:41:59;;;;;;;;;;;22.70;62.10;;;18.24;100.00;94934.56;5006075;28;19909;-49
2023/07/24 06:44:25;;;;;;;;;;;22.70;62.00;;;18.14;100.00;94943.03;4993594;28;19921;-46
2023/07/24 06:46:50;;;;;;;;;;;22.60;62.00;;;18.08;100.00;94936.25;5007794;28;20372;-48
2023/07/24 06:49:16;;;;;;;;;;;22.50;62.10;;;18.11;100.00;94932.91;5003787;28;19917;-50
2023/07/24 06:51:42;;;;;;;;;;;22.50;62.10;;;18.10;100.00;94931.34;4972319;28;19968;-51
2023/07/24 06:54:08;;;;;;;;;;;22.40;62.10;;;18.12;100.00;94937.19;5021333;28;19956;-49
2023/07/24 06:56:33;;;;;;;;;;;22.40;62.10;;;18.00;100.00;94925.22;5000348;28;19920;-49
2023/07/24 06:58:59;;;;;;;;;;;22.30;62.00;;;17.95;100.00;94900.38;5010763;28;20002;-47
2023/07/24 07:01:25;;;;;;;;;;;22.30;62.00;;;17.90;100.00;94876.31;5008431;28;19909;-51
2023/07/24 07:03:50;;;;;;;;;;;22.30;62.00;;;17.91;100.00;94912.91;5003076;28;20514;-51
2023/07/24 07:06:16;;;;;;;;;;;22.30;62.10;;;17.96;100.00;94945.84;5007477;28;19909;-51
2023/07/24 07:08:42;;;;;;;;;;;22.30;62.10;;;18.03;100.00;94948.81;4993662;28;20299;-51
2023/07/24 07:11:08;;;;;;;;;;;22.30;62.20;;;18.10;100.00;94945.59;5008115;28;19920;-50
2023/07/24 07:13:33;;;;;;;;;;;22.40;62.30;;;18.15;100.00;94945.41;5007014;28;19957;-49
2023/07/24 07:15:59;;;;;;;;;;;22.50;62.30;;;18.23;100.00;94932.97;5006827;28;19943;-51
2023/07/24 07:18:25;;;;;;;;;;;22.60;62.20;;;18.28;100.00;94943.56;5011261;28;19909;-50
2023/07/24 07:20:53;;;;;;;;;;;22.70;62.20;;;18.35;100.00;94945.75;5005220;28;20414;-48
2023/07/24 07:23:21;;;;;;;;;;;22.80;62.20;;;18.42;100.00;94944.09;5011223;28;20443;-53
2023/07/24 07:25:46;;;;;;;;;;;22.90;62.20;;;18.43;100.00;94945.69;5010608;28;19936;-52
2023/07/24 07:28:14;;;;;;;;;;;22.90;62.20;;;18.49;100.00;94938.97;5015747;28;20050;-50
2023/07/24 07:30:41;;;;;;;;;;;22.90;62.20;;;18.56;100.00;94927.66;5011108;28;20347;-54
2023/07/24 07:33:07;;;;;;;;;;;22.90;62.30;;;18.56;100.00;94930.34;4999854;28;20358;-50
2023/07/24 07:35:33;;;;;;;;;;;22.90;62.30;;;18.54;100.00;94923.69;5008215;28;19995;-52
2023/07/24 07:38:00;;;;;;;;;;;23.00;62.30;;;18.56;100.00;94916.88;5008795;28;20035;-48
2023/07/24 07:40:27;;;;;;;;;;;23.00;62.20;;;18.60;100.00;94903.50;5008530;28;20362;-49
2023/07/24 07:42:53;;;;;;;;;;;23.00;62.20;;;18.65;100.00;94920.28;5010793;28;19909;-50
2023/07/24 07:45:20;;;;;;;;;;;23.10;62.20;;;18.67;100.00;94925.31;4993059;28;19986;-53
2023/07/24 07:47:46;;;;;;;;;;;23.10;62.10;;;18.69;100.00;94929.28;4990983;28;19975;-53
2023/07/24 07:50:12;;;;;;;;;;;23.20;62.10;;;18.67;100.00;94931.50;4996116;28;20682;-50
2023/07/24 07:52:38;;;;;;;;;;;23.30;61.90;;;18.75;100.00;94935.28;5006515;28;19916;-52
2023/07/24 07:55:08;;;;;;;;;;;23.40;61.80;;;18.75;100.00;94929.88;5013758;28;19999;-53
2023/07/24 07:57:37;;;;;;;;;;;23.50;61.80;;;18.84;100.00;94938.69;5011936;28;20003;-49
2023/07/24 08:00:08;;;;;;;;;;;23.60;61.80;;;18.92;100.00;94935.09;5013909;28;19974;-49
2023/07/24 08:02:34;;;;;;;;;;;23.60;61.80;;;19.01;100.00;94932.31;5022914;28;19913;-51
2023/07/24 08:05:00;;;;;;;;;;;23.70;61.90;;;19.17;100.00;94933.25;5013632;28;20333;-49
2023/07/24 08:07:26;;;;;;;;;;;23.80;61.80;;;19.30;100.00;94917.06;5001105;28;19916;-48
2023/07/24 08:09:51;;;;;;;;;;;23.90;61.80;;;19.38;100.00;94898.06;5002392;28;19913;-49
2023/07/24 08:12:17;;;;;;;;;;;24.00;61.70;;;19.55;100.00;94880.84;5013888;28;20299;-49
2023/07/24 08:14:43;;;;;;;;;;;24.30;61.60;;;19.74;100.00;94866.00;4998686;28;19913;-49
2023/07/24 08:17:09;;;;;;;;;;;24.60;61.40;;;19.92;100.00;94861.91;5007136;28;20291;-51
2023/07/24 08:19:35;;;;;;;;;;;24.80;61.20;;;20.11;100.00;94855.91;5013567;28;20363;-48
2023/07/24 08:22:00;;;;;;;;;;;25.10;60.90;;;20.28;100.00;94858.34;5007631;28;20007;-49
2023/07/24 08:24:26;;;;;;;;;;;25.40;60.80;;;20.43;100.00;94872.25;5013219;28;19909;-53
2023/07/24 08:26:52;;;;;;;;;;;25.60;60.70;;;20.47;100.00;94849.59;5004562;28;19992;-53
2023/07/24 08:29:17;;;;;;;;;;;25.90;60.40;;;20.52;100.00;94803.38;5007865;28;19914;-52
2023/07/24 08:31:43;;;;;;;;;;;26.10;60.10;;;20.71;100.00;94818.16;4991975;28;19978;-50
2023/07/24 08:34:09;;;;;;;;;;;26.30;59.80;;;20.84;95.44;94814.25;5003800;28;20344;-48
2023/07/24 08:36:36;;;;;;;;;;;26.50;59.60;;;21.07;94.96;94809.00;5023856;28;19995;-51
2023/07/24 08:39:02;;;;;;;;;;;26.80;59.40;;;21.35;97.18;94818.94;4999936;28;19963;-47
2023/07/24 08:41:28;;;;;;;;;;;27.00;59.20;;;21.65;90.77;94811.13;4995736;28;19909;-50
2023/07/24 08:43:54;;;;;;;;;;;27.30;59.20;;;21.94;87.65;94807.13;5006067;28;20272;-57
2023/07/24 08:46:21;;;;;;;;;;;27.70;59.10;;;22.35;92.22;94807.59;5001228;28;19954;-52
2023/07/24 08:48:47;;;;;;;;;;;28.10;58.90;;;22.70;84.38;94821.03;4999281;28;19916;-49
2023/07/24 08:51:24;;;;;;;;;;;28.50;58.70;;;23.06;84.96;94833.34;4998060;28;19917;-51
2023/07/24 08:53:51;;;;;;;;;;;28.90;58.50;;;23.50;78.86;94843.75;5001754;28;19916;-50
2023/07/24 08:56:16;;;;;;;;;;;29.40;58.30;;;23.91;80.46;94846.69;5016677;28;19914;-52
2023/07/24 08:58:42;;;;;;;;;;;29.80;58.00;;;24.25;75.27;94830.41;4999233;28;20023;-53
2023/07/24 09:01:08;;;;;;;;;;;30.20;57.90;;;24.52;69.90;94822.22;4995303;28;19910;-51
2023/07/24 09:03:35;;;;;;;;;;;30.40;57.60;;;24.90;69.05;94815.59;4997968;28;19909;-49
2023/07/24 09:06:07;;;;;;;;;;;30.80;57.40;;;25.37;67.54;94808.63;4996203;28;19948;-51
2023/07/24 09:08:42;;;;;;;;;;;31.10;57.10;;;25.90;65.41;94812.91;4997162;28;20312;-50
2023/07/24 09:11:13;;;;;;;;;;;31.70;56.70;;;26.15;64.14;94788.47;4995174;28;19913;-49
2023/07/24 09:13:43;;;;;;;;;;;32.00;56.30;;;26.25;60.05;94793.19;5005521;28;20479;-49
2023/07/24 09:16:22;;;;;;;;;;;32.50;55.80;;;26.47;61.23;94804.94;4995762;28;19917;-50
2023/07/24 09:18:48;;;;;;;;;;;32.80;55.30;;;26.75;60.97;94823.41;5007393;28;19909;-52
2023/07/24 09:21:13;;;;;;;;;;;33.10;55.40;;;27.01;64.61;94835.94;5003066;28;19913;-50
2023/07/24 09:23:43;;;;;;;;;;;33.30;54.60;;;27.06;62.15;94819.16;5011802;28;20000;-48
2023/07/24 09:26:09;;;;;;;;;;;33.50;54.30;;;27.25;57.66;94798.13;4996119;28;19916;-49
2023/07/24 09:28:36;;;;;;;;;;;33.70;54.10;;;27.43;61.79;94796.16;5018800;28;20355;-51
2023/07/24 09:31:02;;;;;;;;;;;34.00;53.50;;;27.54;61.41;94780.50;4998835;28;20019;-49
2023/07/24 09:33:38;;;;;;;;;;;34.20;53.30;;;27.63;61.04;94777.38;4988266;28;19910;-50
2023/07/24 09:36:10;;;;;;;;;;;34.30;53.00;;;27.71;60.85;94789.09;5008554;28;20608;-47
2023/07/24 09:38:37;;;;;;;;;;;34.40;52.70;;;27.58;60.19;94791.47;5002761;28;19963;-50
2023/07/24 09:41:05;;;;;;;;;;;34.50;52.50;;;27.63;61.08;94777.38;5001574;28;19913;-50
2023/07/24 09:43:32;;;;;;;;;;;34.40;52.20;;;27.67;59.83;94780.88;5007522;28;19917;-46
2023/07/24 09:45:58;;;;;;;;;;;34.40;52.00;;;27.62;58.94;94773.88;4994071;28;19917;-49
2023/07/24 09:48:26;;;;;;;;;;;34.20;51.80;;;27.55;59.28;94773.88;5007493;28;20023;-48
2023/07/24 09:51:00;;;;;;;;;;;34.20;51.80;;;27.37;57.09;94771.16;5000370;28;19965;-48
2023/07/24 09:53:49;;;;;;;;;;;34.00;51.60;;;27.09;58.15;94777.38;5009216;28;19909;-47
2023/07/24 09:56:18;;;;;;;;;;;33.70;51.50;;;27.00;61.98;94758.63;5017763;28;19913;-46
2023/07/24 09:58:45;;;;;;;;;;;33.50;51.50;;;26.86;61.72;94768.78;4999383;28;19917;-48
2023/07/24 10:01:11;;;;;;;;;;;33.20;51.40;;;26.69;66.71;94784.75;5011691;28;20004;-50
2023/07/24 10:03:56;;;;;;;;;;;33.00;51.40;;;26.16;66.42;94788.06;5002416;28;19909;-48
2023/07/24 10:06:22;;;;;;;;;;;32.70;51.60;;;25.92;63.12;94807.84;5001321;28;19979;-51
2023/07/24 10:08:48;;;;;;;;;;;32.30;51.70;;;25.67;63.92;94822.09;4993348;28;19959;-48
2023/07/24 10:11:15;;;;;;;;;;;31.90;51.90;;;25.35;65.71;94857.28;5007564;28;20352;-48
2023/07/24 10:13:42;;;;;;;;;;;31.50;52.00;;;25.11;69.58;94851.22;5003706;28;19913;-48
2023/07/24 10:16:08;;;;;;;;;;;31.10;52.30;;;24.75;67.76;94838.38;4993636;28;20016;-54
2023/07/24 10:18:42;;;;;;;;;;;30.70;52.40;;;24.60;71.89;94832.00;5000533;28;19913;-50
2023/07/24 10:21:10;;;;;;;;;;;30.60;52.40;;;24.72;75.12;94841.84;5013960;28;19909;-48
2023/07/24 10:23:43;;;;;;;;;;;30.60;52.50;;;24.73;78.44;94844.22;5011626;28;19916;-48
2023/07/24 10:26:09;;;;;;;;;;;30.60;52.40;;;24.81;78.07;94834.94;5018290;28;19920;-49
2023/07/24 10:28:38;;;;;;;;;;;30.80;52.50;;;25.01;81.16;94842.91;5004767;28;19920;-51
2023/07/24 10:31:22;;;;;;;;;;;30.90;52.50;;;25.01;75.66;94830.09;5011061;28;19924;-49
2023/07/24 10:33:50;;;;;;;;;;;31.00;52.50;;;25.02;75.54;94804.41;4995266;28;19916;-49
2023/07/24 10:36:22;;;;;;;;;;;30.90;52.60;;;25.04;72.89;94780.31;5003696;28;20007;-48
2023/07/24 10:38:54;;;;;;;;;;;30.80;52.80;;;24.96;72.48;94775.19;4995196;28;19952;-49
2023/07/24 10:41:20;;;;;;;;;;;30.50;52.80;;;24.75;71.04;94773.81;5006417;28;19932;-48
2023/07/24 10:43:49;;;;;;;;;;;30.10;52.90;;;24.48;78.97;94810.50;5011077;28;20359;-48
2023/07/24 10:46:19;;;;;;;;;;;29.80;52.90;;;24.23;80.87;94849.84;5002924;28;20008;-49
2023/07/24 10:48:51;;;;;;;;;;;29.60;53.10;;;24.07;81.64;94832.91;5010966;28;19916;-49
2023/07/24 10:51:17;;;;;;;;;;;29.40;53.10;;;23.61;83.55;94821.38;4998940;28;19913;-49
2023/07/24 10:53:49;;;;;;;;;;;29.20;53.00;;;23.47;84.78;94825.44;4985152;28;19909;-51
2023/07/24 10:56:16;;;;;;;;;;;29.10;53.10;;;23.47;78.36;94835.50;5007674;28;19909;-48
2023/07/24 10:58:43;;;;;;;;;;;29.00;53.20;;;23.18;83.38;94856.78;5010826;28;19921;-48
2023/07/24 11:01:13;;;;;;;;;;;28.80;53.20;;;22.98;84.94;94828.91;5026442;28;20363;-48
2023/07/24 11:03:42;;;;;;;;;;;28.60;53.40;;;22.78;83.54;94835.50;5003488;28;19915;-51
2023/07/24 11:06:19;;;;;;;;;;;28.30;53.60;;;22.73;84.58;94911.81;4995979;28;19914;-48
2023/07/24 11:08:58;;;;;;;;;;;28.00;54.00;;;22.34;92.41;95028.44;5020125;28;19963;-50
2023/07/24 11:11:31;;;;;;;;;;;27.60;54.40;;;21.16;97.59;95118.31;5003282;23;19944;-51